Time;durP1;ratioP1;P1;durP2;ratioP2;P2;SDS_P1;SDS_P2;PMS_P1;PMS_P2;Temp;Humidity;BMP_temperature;BMP_pressure;BME280_temperature;BME280_humidity;BME280_pressure;Samples;Min_cycle;Max_cycle;Signal;HPM_P1;HPM_P2
2023/08/28 00:01:03;;;;;;;5.78;2.83;;;18.00;99.90;;;;;;5039521;28;20197;-85
2023/08/28 00:03:34;;;;;;;4.00;2.90;;;18.00;99.90;;;;;;5045800;28;20229;-84
2023/08/28 00:06:05;;;;;;;3.85;2.63;;;18.10;99.90;;;;;;5030693;28;20546;-86
2023/08/28 00:08:36;;;;;;;4.97;2.72;;;18.20;99.90;;;;;;5031180;28;20543;-86
2023/08/28 00:11:07;;;;;;;5.28;2.50;;;18.30;99.90;;;;;;5032149;28;20228;-87
2023/08/28 00:13:40;;;;;;;5.13;2.40;;;18.50;99.90;;;;;;5032268;28;20204;-87
2023/08/28 00:16:10;;;;;;;4.50;2.25;;;18.60;99.90;;;;;;5031973;28;20197;-87
2023/08/28 00:18:41;;;;;;;3.78;1.90;;;18.70;99.90;;;;;;5031845;28;20201;-85
2023/08/28 00:21:12;;;;;;;3.63;1.60;;;18.80;99.90;;;;;;5038028;28;20193;-85
2023/08/28 00:23:43;;;;;;;4.03;1.63;;;18.90;99.90;;;;;;5038295;28;20221;-86
2023/08/28 00:26:14;;;;;;;3.10;1.55;;;19.10;99.90;;;;;;5033858;28;20204;-87
2023/08/28 00:28:47;;;;;;;2.88;1.52;;;19.20;99.90;;;;;;5014033;28;20198;-87
2023/08/28 00:31:18;;;;;;;2.88;1.50;;;19.40;99.90;;;;;;5014645;28;20218;-87
2023/08/28 00:33:49;;;;;;;4.00;1.80;;;19.50;99.90;;;;;;5024501;28;20208;-86
2023/08/28 00:36:20;;;;;;;2.95;1.20;;;19.60;99.90;;;;;;5030942;28;20186;-87
2023/08/28 00:38:51;;;;;;;2.58;1.20;;;19.70;99.90;;;;;;5030362;28;20212;-87
2023/08/28 00:41:22;;;;;;;2.45;1.00;;;19.80;99.90;;;;;;5025763;28;20209;-87
2023/08/28 00:43:54;;;;;;;2.33;1.33;;;19.80;99.90;;;;;;5031950;28;20204;-87
2023/08/28 00:46:25;;;;;;;3.90;1.88;;;19.70;99.90;;;;;;5033076;28;20273;-87
2023/08/28 00:48:56;;;;;;;3.28;1.52;;;19.70;99.90;;;;;;5032269;28;20190;-87
2023/08/28 00:51:27;;;;;;;3.83;1.63;;;19.90;99.90;;;;;;5031844;28;20228;-87
2023/08/28 00:53:58;;;;;;;5.68;1.63;;;20.00;99.90;;;;;;5030067;28;20197;-86
2023/08/28 00:56:29;;;;;;;2.85;1.40;;;20.10;99.90;;;;;;5031380;28;20197;-87
2023/08/28 00:59:04;;;;;;;3.03;1.48;;;20.20;99.90;;;;;;5031058;28;20197;-87
2023/08/28 01:01:35;;;;;;;2.38;1.40;;;20.30;99.90;;;;;;5031400;28;20255;-88
2023/08/28 01:04:06;;;;;;;4.28;1.45;;;20.30;99.90;;;;;;5028191;28;20204;-88
2023/08/28 01:06:48;;;;;;;1.80;0.90;;;20.30;99.90;;;;;;5054800;28;20205;-88
2023/08/28 01:09:25;;;;;;;4.95;1.10;;;20.40;99.90;;;;;;5032249;28;20228;-88
2023/08/28 01:12:05;;;;;;;4.07;1.33;;;20.40;99.90;;;;;;5033646;28;20554;-87
2023/08/28 01:14:46;;;;;;;1.38;1.00;;;20.50;99.90;;;;;;5035066;28;20197;-88
2023/08/28 01:17:19;;;;;;;1.98;1.17;;;20.50;99.90;;;;;;5035716;28;20329;-88
2023/08/28 01:19:50;;;;;;;2.45;0.98;;;20.50;99.90;;;;;;5018044;28;20221;-88
2023/08/28 01:22:25;;;;;;;1.35;0.77;;;20.50;99.90;;;;;;5034245;28;20205;-88
2023/08/28 01:25:08;;;;;;;1.38;0.90;;;20.50;99.90;;;;;;5039434;28;20233;-87
2023/08/28 01:27:40;;;;;;;2.08;0.80;;;20.50;99.90;;;;;;5034070;28;20201;-88
2023/08/28 01:30:13;;;;;;;0.70;0.70;;;20.60;99.90;;;;;;5034253;28;20209;-86
2023/08/28 01:32:45;;;;;;;1.58;0.82;;;20.70;99.90;;;;;;5033544;28;20227;-85
2023/08/28 01:35:19;;;;;;;3.05;0.80;;;20.70;99.90;;;;;;5034173;28;20197;-90
2023/08/28 01:38:14;;;;;;;1.17;0.70;;;20.70;99.90;;;;;;5036042;28;20280;-90
2023/08/28 01:40:51;;;;;;;2.80;1.00;;;20.90;99.90;;;;;;5016487;28;20637;-91
2023/08/28 01:43:25;;;;;;;0.98;0.63;;;21.10;99.90;;;;;;5019716;28;20209;-90
2023/08/28 01:45:57;;;;;;;2.17;0.90;;;21.20;99.90;;;;;;5033997;28;20201;-90
2023/08/28 01:48:31;;;;;;;5.05;1.30;;;21.30;99.90;;;;;;5011772;28;20361;-89
2023/08/28 01:51:02;;;;;;;3.20;1.10;;;21.40;99.90;;;;;;5026616;28;20192;-89
2023/08/28 01:53:33;;;;;;;2.20;0.82;;;21.60;99.90;;;;;;5049133;28;20298;-89
2023/08/28 01:56:22;;;;;;;2.20;0.90;;;21.80;99.90;;;;;;5056143;28;20196;-89
2023/08/28 01:58:55;;;;;;;2.42;1.10;;;22.00;99.90;;;;;;5064985;28;20283;-91
2023/08/28 02:01:29;;;;;;;3.90;1.15;;;22.10;99.90;;;;;;5073099;28;20196;-91
2023/08/28 02:04:03;;;;;;;3.50;1.00;;;22.20;99.90;;;;;;5033400;28;20212;-91
2023/08/28 02:06:34;;;;;;;2.22;1.00;;;22.30;99.90;;;;;;5036754;28;20229;-90
2023/08/28 02:09:05;;;;;;;5.72;1.27;;;22.50;99.90;;;;;;5043992;28;20232;-90
2023/08/28 02:11:38;;;;;;;5.55;1.60;;;22.60;99.90;;;;;;5039819;28;20237;-91
2023/08/28 02:14:10;;;;;;;2.85;1.40;;;22.60;99.90;;;;;;5039748;28;20199;-91
2023/08/28 02:16:41;;;;;;;5.25;1.20;;;22.60;99.90;;;;;;5041460;28;20619;-90
2023/08/28 02:19:13;;;;;;;2.40;1.10;;;22.60;99.90;;;;;;5044719;28;20224;-91
2023/08/28 02:21:43;;;;;;;3.13;1.08;;;22.50;99.90;;;;;;5032828;28;21308;-89
2023/08/28 02:24:14;;;;;;;2.50;1.20;;;22.40;99.90;;;;;;5033455;28;20221;-90
2023/08/28 02:26:50;;;;;;;3.33;1.00;;;22.40;99.90;;;;;;5034252;28;20205;-89
2023/08/28 02:29:20;;;;;;;2.88;1.10;;;22.30;99.90;;;;;;5021162;28;20197;-89
2023/08/28 02:31:52;;;;;;;3.72;1.20;;;22.20;99.90;;;;;;5026435;28;20221;-91
2023/08/28 02:34:24;;;;;;;2.83;1.20;;;22.10;99.90;;;;;;5038312;28;20201;-89
2023/08/28 02:37:01;;;;;;;2.63;0.80;;;22.10;99.90;;;;;;5036228;28;20274;-89
2023/08/28 02:39:34;;;;;;;2.55;0.80;;;21.90;99.90;;;;;;5032081;28;20208;-89
2023/08/28 02:42:08;;;;;;;1.65;0.98;;;21.90;99.90;;;;;;5036924;28;20201;-90
2023/08/28 02:44:39;;;;;;;6.53;1.10;;;21.90;99.90;;;;;;5036457;28;20200;-89
2023/08/28 02:47:10;;;;;;;1.88;0.90;;;21.70;99.90;;;;;;5036825;28;20678;-89
2023/08/28 02:49:43;;;;;;;3.30;0.90;;;21.60;99.90;;;;;;5035890;28;20201;-90
2023/08/28 02:52:14;;;;;;;4.20;0.90;;;21.40;99.90;;;;;;5019835;28;20578;-91
2023/08/28 02:54:45;;;;;;;5.75;1.10;;;21.30;99.90;;;;;;5016851;28;20202;-90
2023/08/28 02:57:17;;;;;;;4.40;1.33;;;21.30;99.90;;;;;;5033967;28;20296;-89
2023/08/28 02:59:48;;;;;;;3.45;1.27;;;21.30;99.90;;;;;;5037412;28;20195;-90
2023/08/28 03:02:19;;;;;;;4.15;1.15;;;21.30;99.90;;;;;;5033874;28;20205;-86
2023/08/28 03:04:54;;;;;;;3.97;1.20;;;21.40;99.90;;;;;;5040519;28;20621;-87
2023/08/28 03:07:25;;;;;;;2.30;1.15;;;21.40;99.90;;;;;;5038704;28;20192;-87
2023/08/28 03:09:55;;;;;;;4.68;1.20;;;21.40;99.90;;;;;;5036316;28;20696;-89
2023/08/28 03:12:30;;;;;;;3.28;1.15;;;21.50;99.90;;;;;;5032703;28;20256;-90
2023/08/28 03:15:01;;;;;;;3.67;1.05;;;21.40;99.90;;;;;;5034893;28;20215;-91
2023/08/28 03:17:32;;;;;;;2.83;1.40;;;21.50;99.90;;;;;;5030385;28;20205;-91
2023/08/28 03:20:04;;;;;;;4.05;1.35;;;21.30;99.90;;;;;;5035721;28;20228;-91
2023/08/28 03:22:35;;;;;;;4.88;1.33;;;21.30;99.90;;;;;;5033522;28;20658;-87
2023/08/28 03:25:07;;;;;;;3.78;1.20;;;21.30;99.90;;;;;;5033696;28;20240;-91
2023/08/28 03:27:41;;;;;;;4.40;1.27;;;21.20;99.90;;;;;;5033592;28;20653;-91
2023/08/28 03:30:13;;;;;;;2.80;1.20;;;21.30;99.90;;;;;;5018895;28;20212;-91
2023/08/28 03:32:44;;;;;;;1.95;1.10;;;21.50;99.90;;;;;;5033763;28;20233;-94
2023/08/28 03:35:15;;;;;;;7.57;1.52;;;21.70;99.90;;;;;;5035454;28;20201;-89
2023/08/28 03:37:46;;;;;;;4.28;1.10;;;21.90;99.90;;;;;;5034944;28;20207;-92
2023/08/28 03:40:17;;;;;;;2.85;0.80;;;22.00;99.90;;;;;;5023102;28;20201;-91
2023/08/28 03:42:53;;;;;;;2.15;1.00;;;22.10;99.90;;;;;;5015128;28;20196;-90
2023/08/28 03:45:25;;;;;;;3.60;0.98;;;22.20;99.90;;;;;;5042354;28;20217;-91
2023/08/28 03:47:56;;;;;;;3.63;1.08;;;22.10;99.90;;;;;;5042443;28;20194;-91
2023/08/28 03:50:30;;;;;;;2.55;1.00;;;22.10;99.90;;;;;;5042679;28;20365;-91
2023/08/28 03:53:04;;;;;;;2.55;1.00;;;22.00;99.90;;;;;;5036824;28;20628;-92
2023/08/28 03:55:36;;;;;;;2.63;1.10;;;21.90;99.90;;;;;;5035009;28;20193;-91
2023/08/28 03:58:10;;;;;;;2.33;1.05;;;21.70;99.90;;;;;;5039442;28;20193;-92
2023/08/28 04:00:43;;;;;;;3.70;1.00;;;21.60;99.90;;;;;;5040696;28;20189;-91
2023/08/28 04:03:15;;;;;;;2.60;1.20;;;21.50;99.90;;;;;;5040181;28;20220;-92
2023/08/28 04:05:48;;;;;;;2.40;1.10;;;21.40;99.90;;;;;;5019207;28;20189;-93
2023/08/28 04:08:21;;;;;;;1.98;0.90;;;21.20;99.90;;;;;;5034789;28;20189;-91
2023/08/28 04:10:53;;;;;;;3.35;1.10;;;21.20;99.90;;;;;;5049853;28;20273;-89
2023/08/28 04:13:31;;;;;;;2.33;1.10;;;21.10;99.90;;;;;;5055057;28;20209;-80
2023/08/28 04:16:05;;;;;;;1.38;0.95;;;21.10;99.90;;;;;;5056307;28;20410;-82
2023/08/28 04:18:39;;;;;;;5.47;1.20;;;21.20;99.90;;;;;;5049122;28;20207;-92
2023/08/28 04:21:10;;;;;;;5.50;1.08;;;21.30;99.90;;;;;;5052038;28;20194;-92
2023/08/28 04:23:41;;;;;;;3.33;1.20;;;21.20;99.90;;;;;;5055806;28;20297;-93
2023/08/28 04:26:12;;;;;;;3.65;1.20;;;21.20;99.90;;;;;;5044666;28;20272;-93
2023/08/28 04:28:47;;;;;;;2.70;1.30;;;21.10;99.90;;;;;;5023524;28;20193;-92
2023/08/28 04:31:21;;;;;;;2.67;1.10;;;21.10;99.90;;;;;;5039050;28;20204;-92
2023/08/28 04:33:53;;;;;;;5.15;1.20;;;21.00;99.90;;;;;;5045880;28;20229;-93
2023/08/28 04:36:24;;;;;;;5.35;1.13;;;21.00;99.90;;;;;;5030681;28;20311;-93
2023/08/28 04:38:57;;;;;;;1.95;0.93;;;21.00;99.90;;;;;;5046157;28;20202;-91
2023/08/28 04:41:29;;;;;;;5.53;1.15;;;21.00;99.90;;;;;;5001357;28;20202;-93
2023/08/28 04:44:07;;;;;;;2.65;1.15;;;21.00;99.90;;;;;;5038776;28;20208;-93
2023/08/28 04:46:38;;;;;;;2.15;1.20;;;21.00;99.90;;;;;;5043991;28;20200;-93
2023/08/28 04:49:10;;;;;;;3.15;1.10;;;21.10;99.90;;;;;;5026996;28;20273;-94
2023/08/28 04:51:43;;;;;;;2.28;1.10;;;20.90;99.90;;;;;;5045054;28;20198;-92
2023/08/28 04:54:14;;;;;;;2.78;0.80;;;21.00;99.90;;;;;;5043955;28;20209;-92
2023/08/28 04:56:47;;;;;;;2.67;1.10;;;21.00;99.90;;;;;;5043889;28;20363;-91
2023/08/28 04:59:21;;;;;;;2.03;0.98;;;20.90;99.90;;;;;;5041569;28;20197;-91
2023/08/28 05:01:57;;;;;;;2.08;1.17;;;21.00;99.90;;;;;;5043435;28;20292;-93
2023/08/28 05:04:29;;;;;;;0.90;0.70;;;21.10;99.90;;;;;;5017155;28;20207;-92
2023/08/28 05:07:05;;;;;;;2.47;0.85;;;21.00;99.90;;;;;;5039873;28;20198;-92
2023/08/28 05:09:39;;;;;;;4.07;0.93;;;21.10;99.90;;;;;;5036216;28;20202;-92
2023/08/28 05:12:12;;;;;;;2.20;0.95;;;21.00;99.90;;;;;;5002603;28;20216;-90
2023/08/28 05:14:46;;;;;;;3.30;0.90;;;20.90;99.90;;;;;;5018829;28;20206;-90
2023/08/28 05:17:17;;;;;;;1.45;0.70;;;20.90;99.90;;;;;;5037170;28;20234;-90
2023/08/28 05:19:52;;;;;;;2.85;0.75;;;20.80;99.90;;;;;;5052682;28;20209;-90
2023/08/28 05:22:24;;;;;;;4.78;0.98;;;20.80;99.90;;;;;;5021566;28;20205;-91
2023/08/28 05:24:58;;;;;;;1.15;0.70;;;20.80;99.90;;;;;;5039163;28;20318;-92
2023/08/28 05:27:31;;;;;;;1.25;0.65;;;20.80;99.90;;;;;;5032357;28;20600;-90
2023/08/28 05:30:07;;;;;;;0.98;0.60;;;20.80;99.90;;;;;;5021800;28;20194;-90
2023/08/28 05:32:43;;;;;;;3.55;0.77;;;20.80;99.90;;;;;;5026152;28;20211;-94
2023/08/28 05:35:17;;;;;;;2.22;0.90;;;20.90;99.90;;;;;;5039519;28;20243;-90
2023/08/28 05:37:50;;;;;;;2.10;0.70;;;20.80;99.90;;;;;;5040621;28;20201;-93
2023/08/28 05:40:26;;;;;;;2.70;0.80;;;20.80;99.90;;;;;;5018148;28;20600;-92
2023/08/28 05:42:59;;;;;;;3.08;1.00;;;20.80;99.90;;;;;;5030363;28;20193;-92
2023/08/28 05:45:34;;;;;;;2.45;0.80;;;20.80;99.90;;;;;;5040466;28;20216;-95
2023/08/28 05:48:06;;;;;;;2.30;0.82;;;20.70;99.90;;;;;;5022230;28;20229;-91
2023/08/28 05:50:42;;;;;;;2.10;0.93;;;20.60;99.90;;;;;;5037898;28;20220;-91
2023/08/28 05:53:14;;;;;;;3.35;1.08;;;20.60;99.90;;;;;;5035916;28;20311;-91
2023/08/28 05:55:47;;;;;;;3.08;1.15;;;20.80;99.90;;;;;;5037522;28;20668;-92
2023/08/28 05:58:20;;;;;;;5.97;1.17;;;20.80;99.90;;;;;;5023500;28;20297;-90
2023/08/28 06:00:54;;;;;;;3.75;0.98;;;20.70;99.90;;;;;;5003691;28;20684;-91
2023/08/28 06:03:25;;;;;;;2.97;0.95;;;20.60;99.90;;;;;;5032920;28;20205;-92
2023/08/28 06:05:59;;;;;;;5.22;1.20;;;20.50;99.90;;;;;;5029782;28;20201;-91
2023/08/28 06:08:30;;;;;;;4.18;1.50;;;20.40;99.90;;;;;;5050693;28;20212;-92
2023/08/28 06:11:01;;;;;;;2.40;1.20;;;20.20;99.90;;;;;;5041754;28;20205;-91
2023/08/28 06:13:32;;;;;;;3.13;1.00;;;20.20;99.90;;;;;;5020240;28;20829;-90
2023/08/28 06:16:05;;;;;;;1.85;1.10;;;20.10;99.90;;;;;;5038836;28;20225;-88
2023/08/28 06:18:37;;;;;;;3.28;1.10;;;20.10;99.90;;;;;;5038713;28;20196;-91
2023/08/28 06:21:10;;;;;;;1.98;1.10;;;20.00;99.90;;;;;;5037631;28;20205;-92
2023/08/28 06:23:41;;;;;;;4.35;1.50;;;20.00;99.90;;;;;;5048181;28;20229;-91
2023/08/28 06:26:13;;;;;;;3.28;1.10;;;19.90;99.90;;;;;;5045235;28;20251;-91
2023/08/28 06:28:45;;;;;;;2.63;1.20;;;19.80;99.90;;;;;;5036326;28;20205;-90
2023/08/28 06:31:18;;;;;;;3.42;1.23;;;19.80;99.90;;;;;;5037602;28;20200;-91
2023/08/28 06:33:49;;;;;;;3.05;1.20;;;19.80;99.90;;;;;;5036042;28;20225;-91
2023/08/28 06:36:21;;;;;;;4.60;1.20;;;19.80;99.90;;;;;;5034743;28;20201;-90
2023/08/28 06:38:52;;;;;;;2.53;0.98;;;19.80;99.90;;;;;;5035009;28;20208;-93
2023/08/28 06:41:24;;;;;;;2.10;1.27;;;19.80;99.90;;;;;;5033773;28;20193;-91
2023/08/28 06:43:54;;;;;;;3.25;1.30;;;19.70;99.90;;;;;;5038388;28;20212;-92
2023/08/28 06:46:27;;;;;;;2.17;1.00;;;19.60;99.90;;;;;;5044904;28;20261;-90
2023/08/28 06:49:07;;;;;;;3.95;1.08;;;19.60;99.90;;;;;;5030569;28;20230;-89
2023/08/28 06:51:38;;;;;;;3.70;1.00;;;19.60;99.90;;;;;;4995854;28;20569;-90
2023/08/28 06:54:09;;;;;;;3.60;1.20;;;19.60;99.90;;;;;;5033021;28;20233;-90
2023/08/28 06:56:41;;;;;;;1.00;0.80;;;19.50;99.90;;;;;;5033622;28;20205;-87
2023/08/28 06:59:12;;;;;;;4.88;1.20;;;19.50;99.90;;;;;;5032929;28;20644;-88
2023/08/28 07:01:46;;;;;;;5.43;1.00;;;19.40;99.90;;;;;;5032999;28;20189;-88
2023/08/28 07:04:16;;;;;;;1.88;0.80;;;19.50;99.90;;;;;;5033157;28;20201;-87
2023/08/28 07:06:48;;;;;;;2.35;1.00;;;19.40;99.90;;;;;;5032868;28;20208;-88
2023/08/28 07:09:19;;;;;;;3.83;1.10;;;19.30;99.90;;;;;;5032375;28;20197;-89
2023/08/28 07:12:11;;;;;;;2.03;0.90;;;19.30;99.90;;;;;;5032121;28;20204;-89
2023/08/28 07:14:43;;;;;;;1.90;1.05;;;19.20;99.90;;;;;;5032679;28;20316;-88
2023/08/28 07:17:17;;;;;;;2.60;1.20;;;19.30;99.90;;;;;;5032782;28;20201;-88
2023/08/28 07:19:48;;;;;;;2.45;1.10;;;19.20;99.90;;;;;;5033515;28;20205;-88
2023/08/28 07:22:22;;;;;;;1.27;0.90;;;19.20;99.90;;;;;;5039212;28;20207;-88
2023/08/28 07:25:03;;;;;;;1.80;0.80;;;19.20;99.90;;;;;;5036923;28;20241;-88
2023/08/28 07:27:36;;;;;;;3.20;1.27;;;19.10;99.90;;;;;;5035688;28;20572;-88
2023/08/28 07:30:12;;;;;;;16.35;2.95;;;19.10;99.90;;;;;;5024674;28;20367;-90
2023/08/28 07:32:56;;;;;;;3.88;1.60;;;19.10;99.90;;;;;;5022808;28;20218;-87
2023/08/28 07:35:34;;;;;;;2.42;1.00;;;19.10;99.90;;;;;;5018705;28;20222;-86
2023/08/28 07:38:09;;;;;;;4.07;1.10;;;19.00;99.90;;;;;;5025939;28;20255;-87
2023/08/28 07:40:40;;;;;;;4.05;1.10;;;19.00;99.90;;;;;;5032210;28;20683;-86
2023/08/28 07:43:11;;;;;;;2.50;1.33;;;19.00;99.90;;;;;;5034446;28;20197;-85
2023/08/28 07:45:42;;;;;;;3.13;1.40;;;18.90;99.90;;;;;;5033161;28;20197;-87
2023/08/28 07:48:16;;;;;;;2.13;1.33;;;18.80;99.90;;;;;;5034089;28;20203;-88
2023/08/28 07:50:46;;;;;;;4.53;1.55;;;18.80;99.90;;;;;;5018854;28;20210;-87
2023/08/28 07:53:17;;;;;;;3.28;1.30;;;18.80;99.90;;;;;;5029296;28;20251;-85
2023/08/28 07:55:48;;;;;;;4.65;1.50;;;18.80;99.90;;;;;;5025772;28;20209;-86
2023/08/28 07:58:21;;;;;;;3.83;1.40;;;18.80;99.90;;;;;;5031440;28;20560;-85
2023/08/28 08:00:53;;;;;;;4.70;1.65;;;18.80;99.90;;;;;;5033659;28;20280;-85
2023/08/28 08:03:26;;;;;;;3.35;1.55;;;18.70;99.90;;;;;;5025997;28;20297;-85
2023/08/28 08:05:57;;;;;;;2.47;1.17;;;18.70;99.90;;;;;;5023454;28;20235;-85
2023/08/28 08:08:27;;;;;;;1.85;1.10;;;18.70;99.90;;;;;;5033472;28;20193;-86
2023/08/28 08:10:59;;;;;;;3.55;1.20;;;18.70;99.90;;;;;;5032283;28;20221;-85
2023/08/28 08:13:30;;;;;;;3.05;1.70;;;18.70;99.90;;;;;;5031590;28;20698;-84
2023/08/28 08:16:01;;;;;;;3.75;1.48;;;18.70;99.90;;;;;;5028419;28;20231;-85
2023/08/28 08:18:33;;;;;;;3.03;1.35;;;18.70;99.90;;;;;;5033392;28;20197;-85
2023/08/28 08:21:05;;;;;;;2.85;1.40;;;18.60;99.90;;;;;;5036394;28;20207;-85
2023/08/28 08:23:36;;;;;;;2.92;1.42;;;18.70;99.90;;;;;;5019967;28;20202;-86
2023/08/28 08:26:07;;;;;;;4.43;1.52;;;18.60;99.90;;;;;;5036420;28;20307;-87
2023/08/28 08:28:38;;;;;;;3.83;1.50;;;18.60;99.90;;;;;;5038615;28;20221;-87
2023/08/28 08:31:09;;;;;;;4.95;1.67;;;18.60;99.90;;;;;;5046803;28;20205;-87
2023/08/28 08:33:44;;;;;;;1.67;1.25;;;18.60;99.90;;;;;;5030640;28;20190;-87
2023/08/28 08:36:18;;;;;;;3.08;1.20;;;18.60;99.90;;;;;;5038047;28;20196;-89
2023/08/28 08:38:50;;;;;;;3.55;1.20;;;18.60;99.90;;;;;;5020070;28;20567;-87
2023/08/28 08:41:21;;;;;;;3.60;1.17;;;18.60;99.90;;;;;;5038028;28;20192;-87
2023/08/28 08:43:52;;;;;;;2.13;1.15;;;18.60;99.90;;;;;;5021766;28;20208;-88
2023/08/28 08:46:26;;;;;;;1.90;1.00;;;18.60;99.90;;;;;;5041575;28;20208;-89
2023/08/28 08:49:05;;;;;;;2.53;1.20;;;18.60;99.90;;;;;;5040756;28;20708;-90
2023/08/28 08:51:38;;;;;;;3.20;1.48;;;18.50;99.90;;;;;;5056264;28;20189;-90
2023/08/28 08:54:13;;;;;;;3.17;1.42;;;18.50;99.90;;;;;;5051452;28;20213;-90
2023/08/28 08:56:46;;;;;;;1.10;0.80;;;18.50;99.90;;;;;;5054128;28;20217;-89
2023/08/28 08:59:18;;;;;;;2.63;1.30;;;18.50;99.90;;;;;;5032997;28;20206;-88
2023/08/28 09:01:50;;;;;;;3.38;1.20;;;18.50;99.90;;;;;;5022754;28;20208;-88
2023/08/28 09:04:31;;;;;;;4.43;1.35;;;18.50;99.90;;;;;;5020261;28;20205;-87
2023/08/28 09:07:02;;;;;;;2.03;1.23;;;18.50;99.90;;;;;;5027050;28;20196;-88
2023/08/28 09:09:34;;;;;;;3.00;1.00;;;18.50;99.90;;;;;;5054343;28;20221;-87
2023/08/28 09:12:05;;;;;;;2.58;1.50;;;18.50;99.90;;;;;;5042921;28;20233;-87
2023/08/28 09:14:36;;;;;;;3.38;1.45;;;18.50;99.90;;;;;;5033085;28;20216;-87
2023/08/28 09:17:07;;;;;;;1.77;1.00;;;18.50;99.90;;;;;;5025196;28;20205;-88
2023/08/28 09:19:41;;;;;;;3.30;1.40;;;18.50;99.90;;;;;;5037760;28;20205;-87
2023/08/28 09:22:13;;;;;;;2.95;1.13;;;18.50;99.90;;;;;;5032775;28;20221;-87
2023/08/28 09:24:44;;;;;;;5.00;1.80;;;18.50;99.90;;;;;;5033254;28;20229;-86
2023/08/28 09:27:18;;;;;;;2.60;1.00;;;18.60;99.90;;;;;;5021988;28;20707;-88
2023/08/28 09:29:50;;;;;;;3.60;1.25;;;18.50;99.90;;;;;;5029934;28;20190;-87
2023/08/28 09:32:29;;;;;;;3.08;1.42;;;18.50;99.90;;;;;;5039940;28;20205;-87
2023/08/28 09:35:04;;;;;;;2.33;1.40;;;18.50;99.90;;;;;;5046066;28;20224;-86
2023/08/28 09:37:35;;;;;;;4.03;1.40;;;18.50;99.90;;;;;;5030909;28;20560;-86
2023/08/28 09:40:06;;;;;;;3.78;1.40;;;18.50;99.90;;;;;;5034992;28;20928;-86
2023/08/28 09:42:37;;;;;;;4.03;1.70;;;18.50;99.90;;;;;;5030385;28;20669;-87
2023/08/28 09:45:12;;;;;;;4.30;1.80;;;18.50;99.90;;;;;;5021830;28;20201;-88
2023/08/28 09:47:43;;;;;;;3.78;2.10;;;18.40;99.90;;;;;;5039000;28;20219;-89
2023/08/28 09:50:16;;;;;;;6.43;1.90;;;18.30;99.90;;;;;;5024100;28;20729;-86
2023/08/28 09:52:47;;;;;;;5.03;1.75;;;18.30;99.90;;;;;;5028384;28;20205;-88
2023/08/28 09:55:18;;;;;;;4.60;1.60;;;18.30;99.90;;;;;;5044420;28;20223;-87
2023/08/28 09:57:49;;;;;;;4.38;1.73;;;18.30;99.90;;;;;;5042979;28;20212;-87
2023/08/28 10:00:22;;;;;;;4.32;1.98;;;18.30;99.90;;;;;;5039845;28;20201;-86
2023/08/28 10:02:55;;;;;;;2.58;1.40;;;18.30;99.90;;;;;;5048780;28;20196;-86
2023/08/28 10:08:16;;;;;;;3.47;1.52;;;18.40;99.90;;;;;;5046479;28;20256;-88
2023/08/28 10:10:50;;;;;;;2.95;1.40;;;18.30;99.90;;;;;;5044743;28;20212;-87
2023/08/28 10:16:30;;;;;;;3.20;1.50;;;18.40;99.90;;;;;;5046564;28;20681;-87
2023/08/28 10:19:08;;;;;;;2.78;1.55;;;18.40;99.90;;;;;;5039977;28;20281;-87
2023/08/28 10:21:44;;;;;;;5.25;1.90;;;18.40;99.90;;;;;;5039982;28;20225;-86
2023/08/28 10:24:19;;;;;;;2.45;1.50;;;18.40;99.90;;;;;;5034760;28;20240;-85
2023/08/28 10:26:52;;;;;;;3.38;1.90;;;18.40;99.90;;;;;;5020033;28;20189;-86
2023/08/28 10:29:24;;;;;;;2.92;1.88;;;18.30;99.90;;;;;;5035047;28;20205;-86
2023/08/28 10:31:55;;;;;;;2.72;1.35;;;18.40;99.90;;;;;;5038743;28;20568;-87
2023/08/28 10:34:29;;;;;;;2.58;1.40;;;18.40;99.90;;;;;;5039230;28;20582;-87
2023/08/28 10:37:09;;;;;;;5.05;3.53;;;18.40;99.90;;;;;;5043930;28;20200;-87
2023/08/28 10:42:27;;;;;;;4.30;2.50;;;18.40;99.90;;;;;;5056719;23;20320;-86
2023/08/28 10:45:06;;;;;;;4.57;2.78;;;18.40;99.90;;;;;;5049267;28;20215;-86
2023/08/28 10:47:51;;;;;;;4.88;2.85;;;18.40;99.90;;;;;;5029559;28;20221;-86
2023/08/28 10:50:36;;;;;;;4.18;2.50;;;18.40;99.90;;;;;;5025318;28;20228;-87
2023/08/28 10:53:09;;;;;;;4.05;2.13;;;18.40;99.90;;;;;;5033263;28;20201;-85
2023/08/28 10:55:40;;;;;;;3.33;1.73;;;18.40;99.90;;;;;;5034365;28;20259;-86
2023/08/28 10:58:12;;;;;;;2.70;1.90;;;18.30;99.90;;;;;;5033084;28;20200;-86
2023/08/28 11:00:43;;;;;;;3.65;1.73;;;18.30;99.90;;;;;;5033769;28;20193;-87
2023/08/28 11:03:17;;;;;;;2.90;1.67;;;18.30;99.90;;;;;;5034158;28;20220;-87
2023/08/28 11:05:50;;;;;;;2.55;1.50;;;18.30;99.90;;;;;;5030787;28;20228;-87
2023/08/28 11:08:26;;;;;;;2.92;1.88;;;18.30;99.90;;;;;;5033065;28;20201;-86
2023/08/28 11:11:22;;;;;;;2.65;1.40;;;18.30;99.90;;;;;;5032985;28;20185;-86
2023/08/28 11:14:04;;;;;;;1.85;1.27;;;18.30;99.90;;;;;;5059105;28;20212;-89
2023/08/28 11:16:44;;;;;;;3.75;1.65;;;18.30;99.90;;;;;;5040682;28;20228;-89
2023/08/28 11:19:20;;;;;;;2.10;1.52;;;18.30;99.90;;;;;;5028371;28;20194;-91
2023/08/28 11:22:33;;;;;;;3.13;1.50;;;18.30;99.90;;;;;;5030611;28;20185;-91
2023/08/28 11:37:02;;;;;;;3.33;1.52;;;18.20;99.90;;;;;;5049162;22;20209;-89
2023/08/28 11:53:31;;;;;;;2.80;1.48;;;18.30;99.90;;;;;;2094097;23;20529;-85
2023/08/28 11:56:15;;;;;;;2.33;1.35;;;18.20;99.90;;;;;;4949086;28;20268;-87
2023/08/28 12:05:17;;;;;;;4.00;1.50;;;18.20;99.90;;;;;;4948384;29;20271;-85
2023/08/28 12:10:36;;;;;;;2.38;1.40;;;18.10;99.90;;;;;;5042631;23;20255;-87
2023/08/28 12:13:13;;;;;;;2.88;1.52;;;18.10;99.90;;;;;;4923995;28;20208;-87
2023/08/28 12:15:46;;;;;;;3.08;1.58;;;18.10;99.90;;;;;;4923350;29;20715;-85
2023/08/28 12:21:29;;;;;;;2.20;1.20;;;18.10;99.90;;;;;;4921113;28;20212;-87
2023/08/28 12:24:13;;;;;;;2.80;1.30;;;18.00;99.90;;;;;;4913433;29;20266;-86
2023/08/28 12:26:54;;;;;;;1.95;1.30;;;18.00;99.90;;;;;;4922240;29;20287;-86
2023/08/28 12:29:41;;;;;;;3.47;1.40;;;18.00;99.90;;;;;;4930750;28;20197;-85
2023/08/28 12:35:16;;;;;;;3.40;1.27;;;18.00;99.90;;;;;;4986521;23;20307;-85
2023/08/28 12:38:08;;;;;;;3.22;1.35;;;18.00;99.90;;;;;;4950255;28;20191;-86
2023/08/28 12:41:00;;;;;;;3.90;1.20;;;17.90;99.90;;;;;;4940052;29;20193;-83
2023/08/28 12:43:40;;;;;;;2.97;1.20;;;17.90;99.90;;;;;;4944646;23;20232;-85
2023/08/28 12:46:15;;;;;;;2.08;1.20;;;17.90;99.90;;;;;;4934155;29;20184;-86
2023/08/28 12:48:50;;;;;;;1.77;1.00;;;17.90;99.90;;;;;;4925065;29;20766;-84
2023/08/28 12:51:23;;;;;;;1.58;0.90;;;17.90;99.90;;;;;;4926533;29;20212;-86
2023/08/28 12:54:00;;;;;;;2.33;1.02;;;17.90;99.90;;;;;;4920345;29;20193;-85
2023/08/28 12:56:34;;;;;;;1.85;1.10;;;17.90;99.90;;;;;;4916136;29;20324;-89
2023/08/28 13:04:48;;;;;;;3.55;1.67;;;17.60;99.90;;;;;;5106498;23;20244;-85
2023/08/28 13:10:21;;;;;;;4.80;1.80;;;17.50;99.90;;;;;;4968631;28;20180;-86
2023/08/28 13:13:24;;;;;;;3.83;1.95;;;17.40;99.90;;;;;;4965530;28;20203;-86
2023/08/28 13:15:57;;;;;;;5.70;2.55;;;17.40;99.90;;;;;;4957534;29;20212;-86
2023/08/28 13:21:37;;;;;;;5.38;2.30;;;17.30;99.90;;;;;;4944614;28;20228;-85
2023/08/28 13:24:11;;;;;;;3.58;2.33;;;17.30;99.90;;;;;;4831634;23;3280631;-86
2023/08/28 13:26:54;;;;;;;3.63;2.45;;;17.20;99.90;;;;;;4929874;29;20225;-86
2023/08/28 13:29:33;;;;;;;3.30;2.08;;;17.20;99.90;;;;;;4924306;29;20209;-87
2023/08/28 13:32:21;;;;;;;2.90;2.05;;;17.20;99.90;;;;;;4930051;29;20180;-88
2023/08/28 13:34:53;;;;;;;3.67;2.30;;;17.20;99.90;;;;;;4928181;29;20197;-85
2023/08/28 13:37:24;;;;;;;4.07;2.28;;;17.20;99.90;;;;;;4928724;29;20208;-85
2023/08/28 13:40:06;;;;;;;2.80;2.30;;;17.20;99.90;;;;;;4910812;29;20208;-85
2023/08/28 13:42:40;;;;;;;3.47;2.20;;;17.20;99.90;;;;;;4928310;29;20201;-87
2023/08/28 13:45:12;;;;;;;3.13;2.10;;;17.20;99.90;;;;;;4933003;29;20245;-87
2023/08/28 13:47:43;;;;;;;4.18;2.30;;;17.20;99.90;;;;;;4923636;29;20226;-85
2023/08/28 13:50:15;;;;;;;4.20;2.38;;;17.20;99.90;;;;;;4924713;29;20201;-85
2023/08/28 13:52:46;;;;;;;3.55;2.38;;;17.20;99.90;;;;;;4917828;29;20229;-85
2023/08/28 13:55:17;;;;;;;3.40;2.22;;;17.20;99.90;;;;;;4919655;29;20232;-86
2023/08/28 13:57:50;;;;;;;3.58;2.25;;;17.10;99.90;;;;;;4938392;29;20204;-86
2023/08/28 14:00:21;;;;;;;5.72;2.65;;;17.10;99.90;;;;;;4925898;29;20621;-86
2023/08/28 14:02:52;;;;;;;4.80;2.30;;;17.10;99.90;;;;;;4917247;29;20642;-86
2023/08/28 14:05:23;;;;;;;4.88;2.80;;;17.00;99.90;;;;;;4924184;29;20212;-85
2023/08/28 14:07:54;;;;;;;4.03;2.72;;;17.00;99.90;;;;;;4917915;29;20661;-85
2023/08/28 14:10:25;;;;;;;4.97;2.88;;;17.00;99.90;;;;;;4899634;29;20253;-86
2023/08/28 14:12:59;;;;;;;4.00;2.97;;;17.00;99.90;;;;;;4913038;29;20253;-86
2023/08/28 14:15:31;;;;;;;5.93;3.08;;;16.90;99.90;;;;;;4929570;29;20213;-87
2023/08/28 14:18:06;;;;;;;5.65;2.90;;;16.90;99.90;;;;;;4941303;29;20232;-88
2023/08/28 14:20:37;;;;;;;5.47;2.65;;;16.90;99.90;;;;;;4927543;29;20283;-87